Pompano Beach, FL (33060)

1:17 AM EDT on September 02, 2015 (GMT -0400)
Cypress Lake Estates 908 Club | | Change Station
CLOSE
Current Station
Personal Weather Station
Location: Pompano Beach, FL
Elevation: 10 ft
Nearby Weather Stations

Elev 10 ft 26.22 °N, 80.11 °W | Updated 10 seconds ago

Clear
Clear
84.5 °F
Feels Like 95 °F
N
1.0
Wind Variable Wind from ENE
Gusts 3.0 mph

Today
High -- | Low -- °F
--% Chance of Precip.
Yesterday
High -- | Low -- °F
Precip. -- in
7:00 AM 7:39 PM
Waning Gibbous, 83% visible
Pressure 30.07 in
Visibility 10.0 miles
Clouds Clear
Heat Index 95 °F
Dew Point 78 °F
Humidity 80%
Rainfall 0.00 in
Snow Depth Not available.
UV 0 out of 12
Pollen 4.80 out of 12
Air Quality Not available.
Flu Activity Not available.
METAR KPMP 020453Z AUTO 12007KT 10SM CLR 29/24 A3007 RMK AO2 SLP182 T02890239 403280261
Pressure 30.07 in
Visibility 10.0 miles
Clouds Clear
Heat Index 95 °F
Dew Point 78 °F
Humidity 80%
Rainfall 0.00 in
Snow Depth Not available.
UV 0 out of 12
Pollen 4.80 out of 12
Air Quality Not available.
Flu Activity Not available.
METAR KPMP 020453Z AUTO 12007KT 10SM CLR 29/24 A3007 RMK AO2 SLP182 T02890239 403280261

10-Day Weather Forecast

×

Almanac

Astronomy

Sep. 02, 2015 Rise Set
Actual Time
Civil Twilight
Nautical Twilight
Astronomical Twilight
Moon
Length of Visible Light
Length of Day
Tomorrow will be .
, % of the Moon is Illuminated

Today's Extremes

State Highs State Lows

Community

WunderPhotos

Upload Photos

1,851,705 photos uploaded!

WunderBlogs® & News

Nearby

Air Quality

  Air Quality AQ Index Pollutant
Not available.

Snow Depth

Station Depth Elevation

Earthquake Activity

City Distance Mag. Time & Date
Minimum magnitude displayed is 2.5.

Coastal Water Temperatures

Place Temperature

Stations

Nearby Weather Stations

Station Location Temp. Windchill Dew Point Humidity Wind Precip. Elev Updated Type